Main page
METAR-TAF:

METAR-TAF

Airports :

Base Aérea de Alcantarilla

Murcia, Spain

latitude: 37-57N, longitude: 001-14W, elevation: 75 m

Current weather observation

The report was made 11 hours and 23 minutes ago, at 18:05 UTC
Wind 7 kt from the Southwest, varying between South/Southwest and West
Temperature 17°C
Humidity 63%
Pressure 1000 hPa
Visibility 10 km or more
Few clouds at a height of 3000 ft

METAR: LERI 231805Z 23007KT 200V280 9999 FEW030 17/10 Q1000 NOSIG

Time: 07:28 (05:28 UTC)

Forecast

The report was made 3 hours and 28 minutes ago, at 02:00 UTC
Forecast valid from 24 at 03 UTC to 24 at 12 UTC
Wind 5 kt from the Southwest
Visibility 10 km or more
Few clouds at a height of 4000 ft

TAF: LERI 240200Z 2403/2412 23005KT 9999 FEW040

Weather observations and forecasts of more than 4000 airports (METAR and TAF reports).

The available stations are represented by yellow and red dots on the map.

Hover mouse over dot to see the name of the station.

Then click to see weather observations and forecasts.

To change the map : click on the green buttons with a black cross to zoom in, on the green button with a dash to zoom out, or on the green arrows for adjacent maps.


METAR-TAF: